createdAt,value
2018-03-24T00:00:35.840Z,80.65
2018-03-24T00:01:24.980Z,81.12
2018-03-24T00:02:14.019Z,80.36
2018-03-24T00:03:03.057Z,80.73
2018-03-24T00:03:52.100Z,80.11
2018-03-24T00:04:41.144Z,80.73
2018-03-24T00:05:30.192Z,80.90
2018-03-24T00:06:19.236Z,80.20
2018-03-24T00:07:08.390Z,79.64
2018-03-24T00:07:57.425Z,78.91
2018-03-24T00:08:46.491Z,79.28
2018-03-24T00:09:35.585Z,79.54
2018-03-24T00:10:24.640Z,78.80
2018-03-24T00:11:13.674Z,79.58
2018-03-24T00:12:02.712Z,79.08
2018-03-24T00:12:51.760Z,78.94
2018-03-24T00:13:40.809Z,78.42
2018-03-24T00:14:29.860Z,78.63
2018-03-24T00:15:18.950Z,78.63
2018-03-24T00:16:08.005Z,79.35
2018-03-24T00:16:57.055Z,78.55
2018-03-24T00:17:46.102Z,79.56
2018-03-24T00:18:35.143Z,79.47
2018-03-24T00:19:24.182Z,79.99
2018-03-24T00:20:13.225Z,80.57
2018-03-24T00:21:02.334Z,80.21
2018-03-24T00:21:51.370Z,79.87
2018-03-24T00:22:40.541Z,80.25
2018-03-24T00:23:29.581Z,80.54
2018-03-24T00:24:18.625Z,80.58
2018-03-24T00:25:07.669Z,80.52
2018-03-24T00:25:56.723Z,80.35
2018-03-24T00:26:45.770Z,79.85
2018-03-24T00:27:34.805Z,80.26
2018-03-24T00:28:24.151Z,80.88
2018-03-24T00:29:13.193Z,80.68
2018-03-24T00:30:02.233Z,81.30
2018-03-24T00:30:51.283Z,80.89
2018-03-24T00:31:40.324Z,80.59
2018-03-24T00:32:29.374Z,80.98
2018-03-24T00:33:18.421Z,80.61
2018-03-24T00:34:07.733Z,80.51
2018-03-24T00:34:56.784Z,80.74
2018-03-24T00:35:45.841Z,81.03
2018-03-24T00:36:34.891Z,81.00
2018-03-24T00:37:23.963Z,80.32
2018-03-24T00:38:13.004Z,80.10
2018-03-24T00:39:02.049Z,80.45
2018-03-24T00:39:51.180Z,79.92
2018-03-24T00:40:40.231Z,80.33
2018-03-24T00:41:29.277Z,80.50
2018-03-24T00:42:18.358Z,80.29
2018-03-24T00:43:07.394Z,80.36
2018-03-24T00:43:56.438Z,80.91
2018-03-24T00:44:45.484Z,81.15
2018-03-24T00:45:36.346Z,80.00
2018-03-24T00:46:25.388Z,79.86
2018-03-24T00:47:14.426Z,80.01
2018-03-24T00:48:03.474Z,79.58
2018-03-24T00:48:52.513Z,79.27
2018-03-24T00:49:41.557Z,79.76
2018-03-24T00:50:30.601Z,79.55
2018-03-24T00:51:19.744Z,79.69
2018-03-24T00:52:08.792Z,79.80
2018-03-24T00:52:57.835Z,80.01
2018-03-24T00:53:46.880Z,79.84
2018-03-24T00:54:35.929Z,79.69
2018-03-24T00:55:25.025Z,80.22
2018-03-24T00:56:14.070Z,79.36
2018-03-24T00:57:03.169Z,80.35
2018-03-24T00:57:52.205Z,80.23
2018-03-24T00:58:41.242Z,79.96
2018-03-24T00:59:30.291Z,79.67
2018-03-24T01:00:19.400Z,80.25
2018-03-24T01:01:08.569Z,80.60
2018-03-24T08:20:45.174Z,76.81
2018-03-24T08:21:34.576Z,77.67
2018-03-24T08:22:23.641Z,77.15
2018-03-24T08:23:12.698Z,77.00
2018-03-24T08:24:01.761Z,77.94
2018-03-24T08:24:50.825Z,78.40
2018-03-24T08:25:39.887Z,79.07
2018-03-24T08:26:29.072Z,79.18
2018-03-24T08:27:18.141Z,80.18
2018-03-24T08:28:07.211Z,80.46
2018-03-24T08:28:56.264Z,80.22
2018-03-24T08:29:45.357Z,80.78
2018-03-24T08:30:34.413Z,80.55
2018-03-24T08:31:23.501Z,80.44
2018-03-24T08:32:12.560Z,80.03
2018-03-24T08:33:01.620Z,79.48
2018-03-24T08:33:50.694Z,78.82
2018-03-24T08:34:39.752Z,78.62
2018-03-24T08:35:28.869Z,78.81
2018-03-24T08:36:17.934Z,78.99
2018-03-24T08:37:06.998Z,78.37
2018-03-24T08:37:56.070Z,80.35
2018-03-24T08:38:45.131Z,80.18
2018-03-24T08:39:34.205Z,79.85
2018-03-24T08:40:23.314Z,79.18
2018-03-24T08:41:12.369Z,78.08
2018-03-24T08:42:01.705Z,78.83
2018-03-24T08:42:51.154Z,78.18
2018-03-24T08:43:40.213Z,78.43
2018-03-24T08:44:29.399Z,77.78
2018-03-24T08:45:18.624Z,78.88
2018-03-24T08:46:07.805Z,78.06
2018-03-24T08:46:57.342Z,77.85
2018-03-24T08:47:46.411Z,77.12
2018-03-24T08:48:35.488Z,76.70
2018-03-24T08:49:24.726Z,76.62
2018-03-24T08:50:13.782Z,75.17
2018-03-24T08:51:02.938Z,77.03
2018-03-24T08:51:51.999Z,76.86
2018-03-24T08:52:41.077Z,76.77
2018-03-24T08:53:30.138Z,76.12
2018-03-24T08:54:19.204Z,75.78
2018-03-24T08:55:08.277Z,76.70
2018-03-24T08:55:57.337Z,77.01
2018-03-24T08:56:46.453Z,76.06
2018-03-24T08:57:35.509Z,75.33
2018-03-24T08:58:24.606Z,76.31
2018-03-24T08:59:13.678Z,74.58
2018-03-24T09:00:02.740Z,75.08
2018-03-24T09:00:51.822Z,75.72
2018-03-24T09:01:40.929Z,74.32
2018-03-24T09:02:29.994Z,75.83
2018-03-24T09:03:19.052Z,75.75
2018-03-24T09:04:08.138Z,75.19
2018-03-24T09:04:57.197Z,76.34
2018-03-24T09:05:46.258Z,75.53
2018-03-24T09:06:35.324Z,73.66
2018-03-24T09:07:24.513Z,74.32
2018-03-24T09:08:13.570Z,74.02
2018-03-24T09:09:02.660Z,74.39
2018-03-24T09:09:51.731Z,75.09
2018-03-24T09:10:40.792Z,74.87
2018-03-24T09:11:29.848Z,75.17
2018-03-24T09:12:18.910Z,73.73
2018-03-24T09:13:08.079Z,74.03
2018-03-24T09:13:57.140Z,73.73
2018-03-24T09:14:46.205Z,73.68
2018-03-24T09:15:35.256Z,73.52
2018-03-24T09:16:24.368Z,73.60
2018-03-24T09:17:13.449Z,74.20
2018-03-24T09:18:02.549Z,71.49
2018-03-24T09:18:51.588Z,73.58
2018-03-24T09:19:40.652Z,73.21
2018-03-24T09:20:29.703Z,74.04
2018-03-24T09:21:18.778Z,75.32
2018-03-24T09:22:07.904Z,74.17
2018-03-24T09:22:56.955Z,72.90
2018-03-24T09:23:46.005Z,74.23
2018-03-24T09:24:35.080Z,72.71
2018-03-24T09:25:24.191Z,72.22
2018-03-24T09:26:13.259Z,73.39
2018-03-24T09:27:02.414Z,73.53
2018-03-24T09:27:51.478Z,71.67
2018-03-24T09:28:40.532Z,72.13
2018-03-24T09:29:29.595Z,71.37
2018-03-24T09:30:18.653Z,72.30
2018-03-24T09:31:07.705Z,71.80
2018-03-24T09:31:56.767Z,70.89
2018-03-24T09:32:45.876Z,72.14
2018-03-24T09:33:34.940Z,71.83
2018-03-24T09:34:24.017Z,72.08
2018-03-24T09:35:13.082Z,70.91
2018-03-24T09:36:02.151Z,72.31
2018-03-24T09:36:51.269Z,71.68
2018-03-24T09:37:40.321Z,73.22
2018-03-24T09:38:29.482Z,71.74
2018-03-24T09:39:18.586Z,72.10
2018-03-24T09:40:07.720Z,69.18
2018-03-24T09:40:56.809Z,70.75
2018-03-24T09:41:45.945Z,72.96
2018-03-24T09:42:35.008Z,74.56
2018-03-24T09:43:24.066Z,72.64
2018-03-24T09:44:13.129Z,74.16
2018-03-24T09:45:02.184Z,72.85
2018-03-24T09:45:51.246Z,70.27
2018-03-24T09:46:40.295Z,71.61
2018-03-24T09:47:29.471Z,70.98
2018-03-24T09:48:18.556Z,68.03
2018-03-24T09:49:07.600Z,70.38
2018-03-24T09:49:56.677Z,69.97
2018-03-24T09:50:45.738Z,69.25
2018-03-24T09:51:34.785Z,70.60
2018-03-24T09:52:23.902Z,70.51
2018-03-24T09:53:12.963Z,71.15
2018-03-24T09:54:02.021Z,69.79
2018-03-24T09:54:51.094Z,68.80
2018-03-24T09:55:40.148Z,69.31
2018-03-24T09:56:29.288Z,68.35
2018-03-24T09:57:18.339Z,67.33
2018-03-24T09:58:07.397Z,68.05
2018-03-24T09:58:56.453Z,66.96
2018-03-24T09:59:45.531Z,68.78
2018-03-24T10:00:34.597Z,70.01
2018-03-24T10:01:23.661Z,70.36
2018-03-24T10:02:12.772Z,70.32
2018-03-24T10:03:01.846Z,68.28
2018-03-24T10:03:50.990Z,68.79
2018-03-24T10:04:40.146Z,69.71
2018-03-24T10:05:29.206Z,68.14
2018-03-24T10:06:18.335Z,69.17
2018-03-24T10:07:07.408Z,69.27
2018-03-24T10:07:56.483Z,67.26
2018-03-24T10:08:45.549Z,69.35
2018-03-24T10:09:34.616Z,69.21
2018-03-24T10:10:23.713Z,69.37
2018-03-24T10:11:12.768Z,67.79
2018-03-24T10:12:01.834Z,68.53
2018-03-24T10:12:50.940Z,67.49
2018-03-24T10:13:39.984Z,68.80
2018-03-24T10:14:29.046Z,69.83
2018-03-24T10:15:18.105Z,69.02
2018-03-24T10:16:07.265Z,68.95
2018-03-24T10:16:56.325Z,68.82
2018-03-24T10:17:46.211Z,69.14
2018-03-24T10:18:35.300Z,67.37
2018-03-24T10:19:24.428Z,66.95
2018-03-24T10:20:13.482Z,67.83
2018-03-24T10:22:44.312Z,67.60
2018-03-24T10:23:43.036Z,68.68
2018-03-24T10:24:32.254Z,68.01
2018-03-24T10:25:21.310Z,69.52
2018-03-24T10:26:10.366Z,69.37
2018-03-24T10:26:59.423Z,70.01
2018-03-24T10:27:48.475Z,69.08
2018-03-24T10:28:37.529Z,67.86
2018-03-24T10:29:26.585Z,69.10
2018-03-24T10:30:15.682Z,68.68
2018-03-24T10:31:05.549Z,69.31
2018-03-24T10:31:54.621Z,69.61
2018-03-24T10:32:43.666Z,68.32
2018-03-24T10:33:32.794Z,68.86
2018-03-24T10:34:21.842Z,69.33
2018-03-24T10:35:10.914Z,69.05
2018-03-24T10:36:00.097Z,70.50
2018-03-24T10:36:49.152Z,69.98
2018-03-24T10:37:43.775Z,69.16
2018-03-24T10:38:32.833Z,67.33
2018-03-24T10:39:21.926Z,67.53
2018-03-24T10:40:10.982Z,64.88
2018-03-24T10:41:05.814Z,66.60
2018-03-24T10:41:54.936Z,67.27
2018-03-24T10:42:49.454Z,65.91
2018-03-24T10:43:39.429Z,66.25
2018-03-24T10:44:28.494Z,64.34
2018-03-24T10:45:17.554Z,64.23
2018-03-24T10:46:06.619Z,65.01
2018-03-24T10:46:56.128Z,64.96
2018-03-24T10:47:45.189Z,66.42
2018-03-24T10:48:34.250Z,67.15
2018-03-24T10:49:23.305Z,65.87
2018-03-24T10:50:12.364Z,65.04
2018-03-24T10:51:01.438Z,67.67
2018-03-24T10:51:50.508Z,66.38
2018-03-24T10:52:39.681Z,65.78
2018-03-24T10:53:28.750Z,63.46
2018-03-24T10:54:17.814Z,65.37
2018-03-24T10:55:06.868Z,63.53
2018-03-24T10:55:55.935Z,64.54
2018-03-24T10:56:45.065Z,64.28
2018-03-24T10:57:34.132Z,64.76
2018-03-24T10:58:23.218Z,63.30
2018-03-24T10:59:12.271Z,63.90
2018-03-24T11:00:01.342Z,65.79
2018-03-24T11:00:55.887Z,67.17
2018-03-24T11:01:44.965Z,67.61
2018-03-24T11:02:35.557Z,68.30
2018-03-24T11:03:24.704Z,67.39
2018-03-24T11:04:13.900Z,68.93
2018-03-24T11:05:03.186Z,65.83
2018-03-24T11:05:52.268Z,65.52
2018-03-24T11:06:41.330Z,67.63
2018-03-24T11:07:30.390Z,65.05
2018-03-24T11:08:19.448Z,68.87
2018-03-24T11:09:08.516Z,69.41
2018-03-24T11:09:57.621Z,66.97
2018-03-24T11:10:46.718Z,67.68
2018-03-24T11:11:35.848Z,66.07
2018-03-24T11:12:24.941Z,64.67
2018-03-24T11:13:13.994Z,66.35
2018-03-24T11:14:03.063Z,67.45
2018-03-24T11:14:52.128Z,66.90
2018-03-24T11:15:41.262Z,64.88
2018-03-24T11:16:30.319Z,65.75
2018-03-24T11:17:19.376Z,67.52
2018-03-24T11:18:08.431Z,66.87
2018-03-24T11:18:57.503Z,68.46
2018-03-24T11:19:46.569Z,69.26
2018-03-24T11:20:35.641Z,68.83
2018-03-24T11:21:24.816Z,69.99
2018-03-24T11:22:13.873Z,69.31
2018-03-24T11:23:02.925Z,69.83
2018-03-24T11:23:51.984Z,71.06
2018-03-24T11:24:41.046Z,71.71
2018-03-24T11:25:30.116Z,72.01
2018-03-24T11:26:19.287Z,71.89
2018-03-24T11:27:08.343Z,72.35
2018-03-24T11:27:57.421Z,73.48
2018-03-24T11:28:46.502Z,72.54
2018-03-24T11:29:35.558Z,72.81
2018-03-24T11:30:24.624Z,74.33
2018-03-24T11:31:13.674Z,73.63
2018-03-24T11:32:02.795Z,73.94
2018-03-24T11:32:51.858Z,73.26
2018-03-24T11:33:40.926Z,74.02
2018-03-24T11:34:29.999Z,74.44
2018-03-24T11:35:19.080Z,75.52
2018-03-24T11:36:08.137Z,77.26
2018-03-24T11:36:57.204Z,78.30
2018-03-24T11:37:46.364Z,76.80
2018-03-24T11:38:35.422Z,77.75
2018-03-24T11:39:24.502Z,77.71
2018-03-24T11:40:13.561Z,78.37
2018-03-24T11:41:02.613Z,76.22
2018-03-24T11:41:52.482Z,76.00
2018-03-24T11:42:41.549Z,77.12
2018-03-24T11:43:30.722Z,78.83
2018-03-24T11:44:19.779Z,77.59
2018-03-24T11:45:08.853Z,78.26
2018-03-24T11:45:57.957Z,78.21
2018-03-24T11:46:47.010Z,78.20
2018-03-24T11:47:36.088Z,78.22
2018-03-24T11:48:25.158Z,78.80
2018-03-24T11:49:14.270Z,77.42
2018-03-24T11:50:03.331Z,76.81
2018-03-24T11:50:52.380Z,76.54
2018-03-24T11:51:41.435Z,76.80
2018-03-24T11:52:30.496Z,75.60
2018-03-24T11:53:19.733Z,75.85
2018-03-24T11:54:08.794Z,76.00
2018-03-24T11:54:57.892Z,76.80
2018-03-24T11:55:46.952Z,75.17
2018-03-24T11:56:36.008Z,77.28
2018-03-24T11:57:25.075Z,76.09
2018-03-24T11:58:14.143Z,75.46
2018-03-24T11:59:03.317Z,75.60
2018-03-24T11:59:52.375Z,75.77
2018-03-24T12:00:41.444Z,74.39
2018-03-24T12:01:30.513Z,75.64
2018-03-24T12:02:19.578Z,75.14
2018-03-24T12:03:08.644Z,76.07
2018-03-24T12:03:57.838Z,76.97
2018-03-24T12:04:46.903Z,75.65
2018-03-24T12:05:35.964Z,75.48
2018-03-24T12:06:25.010Z,75.24
2018-03-24T12:07:14.086Z,76.58
2018-03-24T12:08:03.138Z,76.91
2018-03-24T12:08:52.203Z,76.13
2018-03-24T12:09:41.295Z,76.05
2018-03-24T12:10:30.355Z,77.11
2018-03-24T12:11:19.422Z,76.92
2018-03-24T12:12:08.483Z,76.65
2018-03-24T12:12:57.542Z,77.58
2018-03-24T12:13:46.595Z,76.17
2018-03-24T12:14:35.666Z,76.32
2018-03-24T12:15:24.760Z,75.36
2018-03-24T12:16:13.818Z,76.41
2018-03-24T12:17:02.875Z,77.10
2018-03-24T12:17:51.937Z,77.37
2018-03-24T12:18:41.016Z,78.17
2018-03-24T12:19:30.077Z,76.84
2018-03-24T12:20:19.160Z,76.38
2018-03-24T12:21:08.340Z,76.72
2018-03-24T12:21:57.386Z,76.27
2018-03-24T12:22:46.442Z,77.04
2018-03-24T12:23:35.496Z,76.09
2018-03-24T12:24:24.546Z,76.39
2018-03-24T12:25:13.600Z,74.89
2018-03-24T12:26:02.655Z,75.77
2018-03-24T12:26:51.829Z,75.16
2018-03-24T12:27:40.922Z,74.20
2018-03-24T12:28:29.989Z,74.70
2018-03-24T12:29:19.049Z,75.06
2018-03-24T12:30:08.180Z,75.56
2018-03-24T12:30:57.258Z,74.11
2018-03-24T12:31:46.345Z,75.34
2018-03-24T12:32:35.449Z,74.23
2018-03-24T12:33:24.503Z,75.71
2018-03-24T12:34:13.563Z,76.35
2018-03-24T12:35:02.622Z,75.27
2018-03-24T12:35:51.757Z,74.87
2018-03-24T12:36:40.817Z,74.54
2018-03-24T12:37:29.884Z,75.93
2018-03-24T12:38:18.977Z,76.17
2018-03-24T12:39:08.031Z,74.67
2018-03-24T12:39:57.103Z,75.59
2018-03-24T12:40:46.173Z,76.21
2018-03-24T12:41:35.241Z,76.39
2018-03-24T12:42:24.292Z,73.92
2018-03-24T12:43:13.350Z,72.28
2018-03-24T12:44:02.518Z,72.82
2018-03-24T12:44:52.014Z,74.57
2018-03-24T12:45:41.075Z,74.57
2018-03-24T12:46:30.177Z,73.84
2018-03-24T12:47:19.544Z,74.07
2018-03-24T12:48:08.614Z,73.62
2018-03-24T12:48:57.728Z,72.77
2018-03-24T12:49:46.943Z,73.65
2018-03-24T12:50:36.002Z,72.54
2018-03-24T12:51:25.185Z,74.68
2018-03-24T12:52:14.240Z,72.69
2018-03-24T12:53:03.313Z,72.53
2018-03-24T12:53:52.363Z,72.41
2018-03-24T12:54:41.414Z,72.25
2018-03-24T12:55:30.470Z,72.68
2018-03-24T12:56:19.537Z,73.55
2018-03-24T12:57:08.638Z,73.40
2018-03-24T12:57:57.707Z,71.10
2018-03-24T12:58:46.757Z,72.11
2018-03-24T12:59:35.817Z,69.59
2018-03-24T13:00:24.931Z,71.08
2018-03-24T13:01:14.204Z,72.02
2018-03-24T13:02:03.297Z,71.50
2018-03-24T13:02:52.461Z,70.90
2018-03-24T13:03:41.517Z,69.25
2018-03-24T13:04:30.572Z,71.00
2018-03-24T13:05:19.633Z,68.33
2018-03-24T13:06:08.689Z,70.88
2018-03-24T13:06:57.760Z,68.64
2018-03-24T13:07:46.893Z,70.42
2018-03-24T13:08:35.960Z,69.14
2018-03-24T13:09:25.024Z,69.16
2018-03-24T13:10:14.093Z,68.37
2018-03-24T13:11:03.152Z,68.57
2018-03-24T13:11:52.235Z,68.40
2018-03-24T13:12:41.410Z,67.64
2018-03-24T13:13:30.480Z,68.17
2018-03-24T13:14:19.532Z,68.02
2018-03-24T13:15:08.588Z,68.19
2018-03-24T13:15:57.643Z,66.94
2018-03-24T13:16:46.695Z,66.88
2018-03-24T13:17:35.760Z,66.55
2018-03-24T13:18:24.865Z,67.79
2018-03-24T13:19:13.926Z,67.97
2018-03-24T13:20:03.012Z,67.82
2018-03-24T13:20:52.087Z,69.11
2018-03-24T13:21:41.161Z,67.86
2018-03-24T13:22:30.229Z,69.13
2018-03-24T13:23:19.279Z,68.95
2018-03-24T13:24:08.622Z,69.76
2018-03-24T13:24:57.684Z,69.72
2018-03-24T13:25:46.739Z,69.31
2018-03-24T13:26:35.810Z,69.45
2018-03-24T13:27:24.860Z,69.41
2018-03-24T13:28:13.923Z,69.03
2018-03-24T13:29:03.050Z,67.54
2018-03-24T13:29:52.564Z,67.61
2018-03-24T13:30:41.626Z,67.79
2018-03-24T13:31:30.725Z,68.26
2018-03-24T13:32:19.838Z,66.47
2018-03-24T13:33:08.898Z,65.76
2018-03-24T13:33:58.045Z,65.95
2018-03-24T13:34:47.107Z,65.33
2018-03-24T13:35:36.213Z,62.88
2018-03-24T13:36:25.277Z,65.24
2018-03-24T13:37:14.349Z,65.43
2018-03-24T13:38:03.489Z,66.02
2018-03-24T13:38:52.548Z,66.95
2018-03-24T13:39:41.633Z,67.24
2018-03-24T13:40:30.712Z,67.23
2018-03-24T13:41:19.809Z,64.47
2018-03-24T13:42:08.876Z,65.15
2018-03-24T13:42:57.952Z,67.33
2018-03-24T13:43:47.041Z,68.07
2018-03-24T13:44:36.127Z,67.83
2018-03-24T13:45:25.247Z,65.36
2018-03-24T13:46:14.301Z,64.87
2018-03-24T13:47:03.499Z,65.29
2018-03-24T13:47:52.851Z,66.18
2018-03-24T13:48:41.928Z,67.23
2018-03-24T13:49:31.050Z,67.78
2018-03-24T13:50:20.107Z,66.65
2018-03-24T13:51:09.172Z,68.00
2018-03-24T13:51:58.221Z,66.89
2018-03-24T13:52:47.276Z,67.69
2018-03-24T13:53:36.334Z,67.30
2018-03-24T13:54:25.384Z,67.25
2018-03-24T13:55:14.569Z,68.54
2018-03-24T13:56:03.639Z,68.01
2018-03-24T13:56:52.706Z,67.54
2018-03-24T13:57:41.771Z,68.47
2018-03-24T13:58:30.841Z,68.79
2018-03-24T13:59:19.896Z,68.71
2018-03-24T14:00:08.970Z,67.58
2018-03-24T14:00:58.093Z,65.62
2018-03-24T14:01:47.233Z,65.65
2018-03-24T14:02:36.297Z,67.01
2018-03-24T14:03:25.348Z,66.77
2018-03-24T14:04:14.418Z,65.59
2018-03-24T14:05:03.532Z,66.70
2018-03-24T14:05:52.892Z,67.18
2018-03-24T14:06:42.063Z,67.24
2018-03-24T14:07:31.135Z,67.36
2018-03-24T14:08:20.188Z,68.53
2018-03-24T14:09:09.248Z,66.67
2018-03-24T14:09:58.335Z,67.96
2018-03-24T14:10:47.480Z,66.60
2018-03-24T14:11:36.555Z,67.45
2018-03-24T14:12:25.641Z,67.84
2018-03-24T14:13:14.714Z,66.45
2018-03-24T14:14:03.828Z,64.81
2018-03-24T14:14:52.964Z,65.82
2018-03-24T14:15:42.120Z,65.94
2018-03-24T14:16:31.191Z,67.68
2018-03-24T14:17:20.285Z,66.25
2018-03-24T14:18:09.344Z,65.95
2018-03-24T14:18:58.401Z,66.74
2018-03-24T14:19:47.465Z,66.99
2018-03-24T14:20:36.539Z,68.82
2018-03-24T14:21:25.638Z,65.39
2018-03-24T14:22:14.726Z,66.54
2018-03-24T14:23:03.806Z,64.71
2018-03-24T14:23:52.902Z,66.17
2018-03-24T14:24:41.965Z,66.88
2018-03-24T14:25:31.079Z,66.32
2018-03-24T14:26:20.148Z,66.69
2018-03-24T14:27:09.272Z,66.33
2018-03-24T14:27:58.355Z,67.20
2018-03-24T14:28:47.406Z,69.10
2018-03-24T14:29:36.470Z,68.46
2018-03-24T14:30:25.531Z,68.62
2018-03-24T14:31:14.590Z,71.22
2018-03-24T14:32:03.751Z,68.92
2018-03-24T14:32:52.801Z,66.90
2018-03-24T14:33:41.869Z,66.63
2018-03-24T14:34:31.733Z,65.26
2018-03-24T14:35:20.817Z,67.42
2018-03-24T14:36:09.892Z,66.74
2018-03-24T14:36:59.049Z,66.14
2018-03-24T14:37:48.232Z,68.63
2018-03-24T14:38:37.284Z,66.27
2018-03-24T14:39:26.436Z,65.64
2018-03-24T14:40:15.515Z,66.67
2018-03-24T14:41:04.605Z,66.42
2018-03-24T14:41:53.666Z,67.13
2018-03-24T14:42:42.748Z,68.21
2018-03-24T14:43:31.923Z,67.97
2018-03-24T14:44:21.072Z,67.68
2018-03-24T14:45:10.151Z,66.76
2018-03-24T14:45:59.384Z,66.93
2018-03-24T14:46:48.448Z,68.12
2018-03-24T14:47:37.570Z,66.99
2018-03-24T14:48:26.632Z,67.75
2018-03-24T14:49:15.845Z,67.24
2018-03-24T14:50:05.075Z,66.53
2018-03-24T14:50:54.142Z,66.49
2018-03-24T14:51:43.206Z,66.26
2018-03-24T14:52:32.371Z,67.23
2018-03-24T14:53:21.501Z,67.13
2018-03-24T14:54:10.567Z,66.10
2018-03-24T14:54:59.858Z,66.18
2018-03-24T14:55:48.910Z,66.45
2018-03-24T14:56:38.133Z,65.22
2018-03-24T14:57:27.208Z,65.41
2018-03-24T14:58:16.320Z,64.47
2018-03-24T14:59:05.395Z,64.36
2018-03-24T14:59:54.514Z,66.23
2018-03-24T15:00:43.577Z,66.32
2018-03-24T15:01:32.662Z,66.46
2018-03-24T15:02:21.718Z,65.81
2018-03-24T15:03:10.786Z,67.06
2018-03-24T15:03:59.908Z,66.77
2018-03-24T15:04:49.048Z,66.71
2018-03-24T15:05:38.151Z,66.01
2018-03-24T15:06:27.248Z,66.50
2018-03-24T15:07:16.288Z,68.05
2018-03-24T15:08:05.402Z,66.95
2018-03-24T15:08:54.571Z,66.29
2018-03-24T15:09:43.641Z,66.22
2018-03-24T15:10:32.723Z,67.32
2018-03-24T15:11:21.790Z,67.48
2018-03-24T15:12:10.849Z,68.19
2018-03-24T15:12:59.931Z,68.56
2018-03-24T15:13:49.011Z,68.26
2018-03-24T15:14:38.125Z,67.85
2018-03-24T15:15:27.184Z,68.62
2018-03-24T15:16:16.237Z,67.17
2018-03-24T15:17:05.320Z,67.80
2018-03-24T15:17:54.444Z,67.90
2018-03-24T15:18:43.512Z,67.99
2018-03-24T15:19:32.612Z,68.41
2018-03-24T15:20:21.751Z,68.04
2018-03-24T15:21:10.869Z,68.50
2018-03-24T15:21:59.930Z,68.37
2018-03-24T15:22:48.992Z,69.24
2018-03-24T15:23:38.050Z,68.43
2018-03-24T15:24:27.172Z,69.35
2018-03-24T15:25:16.245Z,69.95
2018-03-24T18:04:52.069Z,81.22
2018-03-24T18:05:41.198Z,81.28
2018-03-24T18:06:31.101Z,81.36
2018-03-24T18:07:20.181Z,81.46
2018-03-24T18:08:09.277Z,81.59
2018-03-24T18:08:58.467Z,81.51
2018-03-24T18:09:47.540Z,81.36
2018-03-24T18:10:36.663Z,81.68
2018-03-24T18:11:25.766Z,82.02
2018-03-24T18:12:16.366Z,81.91
2018-03-24T18:13:05.461Z,81.45
2018-03-24T18:13:54.641Z,81.16
2018-03-24T18:14:43.711Z,80.49
2018-03-24T18:15:33.844Z,79.79
2018-03-24T18:16:23.001Z,79.83
2018-03-24T18:17:12.094Z,80.49
2018-03-24T18:18:01.182Z,80.79
2018-03-24T18:18:50.309Z,80.59
2018-03-24T18:19:40.218Z,80.15
2018-03-24T18:20:30.737Z,80.17
2018-03-24T18:21:20.692Z,80.39
2018-03-24T18:22:09.926Z,79.93
2018-03-24T18:22:59.006Z,79.58
2018-03-24T18:23:48.092Z,79.39
2018-03-24T18:24:37.183Z,79.13
2018-03-24T18:25:26.270Z,79.24
2018-03-24T18:26:15.386Z,79.29
2018-03-24T18:27:04.564Z,79.23
2018-03-24T18:27:53.651Z,79.21
2018-03-24T18:28:42.718Z,81.51
2018-03-24T18:29:31.790Z,81.66
2018-03-24T18:30:20.864Z,80.35
2018-03-24T18:31:09.932Z,78.75
2018-03-24T18:31:59.533Z,77.47
2018-03-24T18:32:48.606Z,78.79
2018-03-24T18:33:37.680Z,78.43
2018-03-24T18:34:26.750Z,78.03
2018-03-24T18:35:15.820Z,78.20
2018-03-24T18:36:04.910Z,77.71
2018-03-24T18:36:53.979Z,78.11
2018-03-24T18:37:43.145Z,78.49
2018-03-24T18:38:32.205Z,78.82
2018-03-24T18:39:21.271Z,79.07
2018-03-24T18:40:10.338Z,79.14
2018-03-24T18:40:59.412Z,80.03
2018-03-24T18:41:48.528Z,80.13
2018-03-24T18:42:37.639Z,80.13
2018-03-24T18:43:26.703Z,79.75
2018-03-24T18:44:15.833Z,79.60
2018-03-24T18:45:04.942Z,79.63
2018-03-24T18:45:54.044Z,79.25
2018-03-24T18:46:43.170Z,79.78
2018-03-24T18:47:32.243Z,79.20
2018-03-24T18:48:21.329Z,79.07
2018-03-24T18:49:10.496Z,79.27
2018-03-24T18:49:59.597Z,79.02
2018-03-24T18:50:49.310Z,78.60
2018-03-24T18:51:38.378Z,78.22
2018-03-24T18:52:27.444Z,78.36
2018-03-24T18:53:16.510Z,78.29
2018-03-24T18:54:05.591Z,78.41
2018-03-24T18:54:54.788Z,78.82
2018-03-24T18:55:43.858Z,79.28
2018-03-24T18:56:32.959Z,79.27
2018-03-24T18:57:22.080Z,79.37
2018-03-24T18:58:11.164Z,79.51
2018-03-24T18:59:00.280Z,81.03
2018-03-24T18:59:49.358Z,80.81
2018-03-24T19:00:38.503Z,80.96
2018-03-24T19:01:27.577Z,81.34
2018-03-24T19:02:16.764Z,81.05
2018-03-24T19:03:05.859Z,80.83
2018-03-24T19:03:54.950Z,80.78
2018-03-24T19:04:44.028Z,80.27
2018-03-24T19:05:33.117Z,80.03
2018-03-24T19:06:22.249Z,79.73
2018-03-24T19:07:11.326Z,79.65
2018-03-24T19:08:00.386Z,79.58
2018-03-24T19:08:49.542Z,79.79
2018-03-24T19:09:38.624Z,80.08
2018-03-24T19:10:27.688Z,80.02
2018-03-24T19:11:16.822Z,80.19
2018-03-24T19:12:05.909Z,80.08
2018-03-24T19:12:54.984Z,79.74
2018-03-24T19:13:44.264Z,79.54
2018-03-24T19:14:33.373Z,79.68
2018-03-24T19:15:22.441Z,79.80
2018-03-24T19:16:11.544Z,79.86
2018-03-24T19:17:00.623Z,79.81
2018-03-24T19:17:49.701Z,80.28
2018-03-24T19:18:38.763Z,80.59
2018-03-24T19:19:27.868Z,80.76
2018-03-24T19:20:16.999Z,80.62
2018-03-24T19:21:06.094Z,80.67
2018-03-24T19:21:55.155Z,80.43
2018-03-24T19:22:44.228Z,80.77
2018-03-24T19:23:33.314Z,79.96
2018-03-24T19:24:22.381Z,79.65
2018-03-24T19:25:11.519Z,79.32
2018-03-24T19:26:00.674Z,79.28
2018-03-24T19:26:49.758Z,78.86
2018-03-24T19:27:38.837Z,78.65
2018-03-24T19:28:27.932Z,79.11
2018-03-24T19:29:17.014Z,79.74
2018-03-24T19:30:06.089Z,80.45
2018-03-24T19:30:55.170Z,80.59
2018-03-24T19:31:44.267Z,80.45
2018-03-24T19:32:35.987Z,80.77
2018-03-24T19:33:25.411Z,80.30
2018-03-24T19:34:14.488Z,80.77
2018-03-24T19:36:26.594Z,79.56
2018-03-24T19:37:15.776Z,79.53
2018-03-24T19:38:04.885Z,79.37
2018-03-24T19:38:53.951Z,79.37
2018-03-24T19:39:43.068Z,79.18
2018-03-24T19:40:32.154Z,79.14
2018-03-24T19:41:21.297Z,78.68
2018-03-24T19:42:10.473Z,78.59
2018-03-24T19:42:59.582Z,78.65
2018-03-24T19:43:48.806Z,78.90
2018-03-24T19:44:37.886Z,78.88
2018-03-24T19:45:26.960Z,79.05
2018-03-24T19:46:16.039Z,79.21
2018-03-24T19:47:05.160Z,79.00
2018-03-24T19:47:54.223Z,79.04
2018-03-24T19:48:43.283Z,78.87
2018-03-24T19:49:32.347Z,78.87
2018-03-24T19:50:21.421Z,79.40
2018-03-24T19:51:10.853Z,79.33
2018-03-24T19:51:59.960Z,79.90
2018-03-24T19:52:49.146Z,79.93
2018-03-24T19:53:38.497Z,79.90
2018-03-24T19:54:27.622Z,79.65
2018-03-24T19:55:16.690Z,79.53
2018-03-24T19:56:05.840Z,79.50
2018-03-24T19:56:55.220Z,79.46
2018-03-24T19:57:44.296Z,79.49
2018-03-24T19:58:33.367Z,79.68
2018-03-24T19:59:22.434Z,79.81
2018-03-24T20:00:11.499Z,79.67
2018-03-24T20:01:00.601Z,79.61
2018-03-24T20:01:49.665Z,80.03
2018-03-24T20:02:38.840Z,80.07
2018-03-24T20:03:27.919Z,80.01
2018-03-24T20:04:16.988Z,80.24
2018-03-24T20:05:06.143Z,80.32
2018-03-24T20:05:55.221Z,80.57
2018-03-24T20:06:44.383Z,80.84
2018-03-24T20:07:33.456Z,81.37
2018-03-24T20:08:22.663Z,81.69
2018-03-24T20:09:11.733Z,81.58
2018-03-24T20:10:00.944Z,81.63
2018-03-24T20:10:50.017Z,81.77
2018-03-24T20:11:39.093Z,81.67
2018-03-24T20:12:28.167Z,81.24
2018-03-24T20:13:17.767Z,81.17
2018-03-24T20:14:06.874Z,81.01
2018-03-24T20:14:55.960Z,80.81
2018-03-24T20:15:45.219Z,80.49
2018-03-24T20:16:34.452Z,80.13
2018-03-24T20:17:23.438Z,80.16
2018-03-24T20:18:12.522Z,80.56
2018-03-24T20:19:01.583Z,80.08
2018-03-24T20:19:50.698Z,79.69
2018-03-24T20:20:39.770Z,79.66
2018-03-24T20:21:28.862Z,79.93
2018-03-24T20:22:17.998Z,80.15
2018-03-24T20:23:07.060Z,80.48
2018-03-24T20:23:56.149Z,81.03
2018-03-24T20:24:45.321Z,81.01
2018-03-24T20:25:34.410Z,81.36
2018-03-24T20:26:23.467Z,81.43
2018-03-24T20:27:12.581Z,81.33
2018-03-24T20:28:01.673Z,81.74
2018-03-24T20:28:50.750Z,81.57
2018-03-24T20:29:39.816Z,81.19
